Time;durP1;ratioP1;P1;durP2;ratioP2;P2;SDS_P1;SDS_P2;PMS_P1;PMS_P2;Temp;Humidity;BMP_temperature;BMP_pressure;BME280_temperature;BME280_humidity;BME280_pressure;Samples;Min_cycle;Max_cycle;Signal;HPM_P1;HPM_P2
2023/04/26 00:02:26;;;;;;;0.50;0.50;;;;;;;12.44;100.00;95915.69;5026370;28;20088;-64
2023/04/26 00:04:57;;;;;;;0.50;0.50;;;;;;;12.84;100.00;95986.38;5026474;28;20081;-64
2023/04/26 00:07:24;;;;;;;0.50;0.50;;;;;;;12.84;100.00;95978.84;5026527;28;20538;-65
2023/04/26 00:09:51;;;;;;;0.60;0.60;;;;;;;12.86;100.00;95979.22;5026533;28;20491;-64
2023/04/26 00:12:18;;;;;;;0.50;0.50;;;;;;;12.71;100.00;95986.09;5026362;28;20057;-64
2023/04/26 00:14:45;;;;;;;0.55;0.55;;;;;;;12.75;100.00;95981.31;5025426;28;20081;-65
2023/04/26 00:17:11;;;;;;;0.60;0.60;;;;;;;12.73;100.00;95986.47;5025989;28;20085;-65
2023/04/26 00:19:38;;;;;;;0.60;0.60;;;;;;;12.63;100.00;95967.91;5021660;28;20115;-66
2023/04/26 00:22:05;;;;;;;0.50;0.50;;;;;;;12.42;100.00;95907.00;5006408;28;20570;-65
2023/04/26 00:24:32;;;;;;;0.60;0.60;;;;;;;12.89;100.00;95977.59;5006768;28;20064;-65
2023/04/26 00:26:59;;;;;;;0.60;0.60;;;;;;;12.61;100.00;95998.09;5006349;28;20127;-65
2023/04/26 00:29:26;;;;;;;0.50;0.50;;;;;;;12.50;100.00;95975.16;5006144;28;20057;-64
2023/04/26 00:31:53;;;;;;;0.50;0.50;;;;;;;12.11;100.00;95935.75;5006394;28;20072;-65
2023/04/26 00:34:20;;;;;;;0.50;0.50;;;;;;;12.48;100.00;95983.09;5005821;28;20290;-63
2023/04/26 00:36:46;;;;;;;0.50;0.50;;;;;;;12.46;100.00;95979.94;5021083;28;20085;-63
2023/04/26 00:39:13;;;;;;;0.50;0.50;;;;;;;12.50;100.00;95972.38;5021146;28;20536;-64
2023/04/26 00:41:39;;;;;;;0.60;0.60;;;;;;;12.61;100.00;95970.31;5006506;28;20132;-63
2023/04/26 00:44:06;;;;;;;0.60;0.60;;;;;;;11.99;100.00;95889.06;5005853;28;20057;-65
2023/04/26 00:46:33;;;;;;;0.60;0.60;;;;;;;12.26;100.00;95920.59;5004828;28;20426;-63
2023/04/26 00:48:59;;;;;;;0.55;0.55;;;;;;;12.59;100.00;95961.59;5005886;28;20594;-64
2023/04/26 00:51:27;;;;;;;0.60;0.60;;;;;;;12.65;100.00;95965.50;5005984;28;20131;-63
2023/04/26 00:53:53;;;;;;;0.52;0.52;;;;;;;12.62;100.00;95971.09;5004999;28;20501;-63
2023/04/26 00:56:23;;;;;;;0.50;0.50;;;;;;;12.69;100.00;95971.03;5006355;28;20050;-63
2023/04/26 00:58:49;;;;;;;0.60;0.60;;;;;;;12.68;100.00;95964.69;5006174;28;20100;-62
2023/04/26 01:01:16;;;;;;;0.60;0.60;;;;;;;12.71;100.00;95963.09;5005806;28;20148;-62
2023/04/26 01:03:45;;;;;;;0.60;0.60;;;;;;;11.88;100.00;95839.22;5004574;28;20057;-62
2023/04/26 01:06:12;;;;;;;0.60;0.60;;;;;;;12.64;100.00;95958.38;5006054;28;20132;-63
2023/04/26 01:08:39;;;;;;;0.60;0.60;;;;;;;12.17;100.00;95870.31;5006004;28;20555;-63
2023/04/26 01:11:06;;;;;;;0.50;0.50;;;;;;;12.47;100.00;95942.63;5004567;28;20053;-65
2023/04/26 01:13:33;;;;;;;0.60;0.60;;;;;;;12.33;100.00;95919.75;5005447;28;20057;-62
2023/04/26 01:16:00;;;;;;;0.52;0.52;;;;;;;12.04;100.00;95885.88;5005983;28;20073;-62
2023/04/26 01:18:27;;;;;;;0.50;0.50;;;;;;;12.13;100.00;95894.53;5013493;28;20056;-64
2023/04/26 01:20:55;;;;;;;0.60;0.60;;;;;;;12.26;100.00;95931.72;5024224;28;20053;-62
2023/04/26 01:23:22;;;;;;;0.50;0.50;;;;;;;12.24;100.00;95931.31;5025217;28;20053;-62
2023/04/26 01:25:49;;;;;;;0.50;0.50;;;;;;;11.78;100.00;95873.38;5025594;28;20492;-65
2023/04/26 01:28:15;;;;;;;0.50;0.50;;;;;;;12.24;100.00;95928.53;5023743;28;20134;-63
2023/04/26 01:30:42;;;;;;;0.60;0.60;;;;;;;12.33;100.00;95926.09;5025101;28;20088;-62
2023/04/26 01:33:09;;;;;;;0.50;0.50;;;;;;;12.29;100.00;95919.78;5025215;28;20053;-66
2023/04/26 01:35:35;;;;;;;0.50;0.50;;;;;;;11.52;100.00;95803.78;5025021;28;20396;-64
2023/04/26 01:38:03;;;;;;;0.60;0.60;;;;;;;12.27;100.00;95916.63;5024966;28;20144;-66
2023/04/26 01:40:29;;;;;;;0.60;0.60;;;;;;;12.24;100.00;95917.44;5023311;28;20088;-63
2023/04/26 01:42:56;;;;;;;0.60;0.60;;;;;;;12.11;100.00;95913.56;5024459;28;20091;-65
2023/04/26 01:45:23;;;;;;;0.50;0.50;;;;;;;11.78;100.00;95883.66;5024143;28;20077;-63
2023/04/26 01:47:49;;;;;;;0.50;0.50;;;;;;;12.05;100.00;95910.44;5024875;28;20525;-64
2023/04/26 01:50:16;;;;;;;0.60;0.60;;;;;;;11.70;100.00;95873.81;5024659;28;20437;-63
2023/04/26 01:52:43;;;;;;;0.60;0.60;;;;;;;11.54;100.00;95843.75;5024671;28;20077;-63
2023/04/26 01:55:09;;;;;;;0.50;0.50;;;;;;;12.09;100.00;95905.63;5024641;28;20531;-64
2023/04/26 01:57:36;;;;;;;0.50;0.50;;;;;;;11.86;100.00;95865.78;5023967;28;20141;-64
2023/04/26 02:00:03;;;;;;;0.60;0.60;;;;;;;11.91;100.00;95862.56;5024577;28;20080;-65
2023/04/26 02:02:30;;;;;;;0.50;0.50;;;;;;;12.15;100.00;95889.34;5024284;28;20050;-64
2023/04/26 02:04:57;;;;;;;0.50;0.50;;;;;;;12.06;100.00;95883.50;5024365;28;20516;-64
2023/04/26 02:07:23;;;;;;;0.55;0.55;;;;;;;12.14;100.00;95887.75;5024295;28;20049;-64
2023/04/26 02:09:50;;;;;;;0.50;0.50;;;;;;;12.09;100.00;95880.66;5029463;28;20052;-64
2023/04/26 02:12:17;;;;;;;0.50;0.50;;;;;;;11.96;100.00;95857.38;5023963;28;20145;-64
2023/04/26 02:14:43;;;;;;;0.50;0.50;;;;;;;11.89;100.00;95845.53;5024313;28;20088;-65
2023/04/26 02:17:10;;;;;;;0.50;0.50;;;;;;;11.91;100.00;95843.16;5024557;28;20144;-65
2023/04/26 02:19:36;;;;;;;0.50;0.50;;;;;;;12.12;100.00;95888.16;5024318;28;20057;-66
2023/04/26 02:22:05;;;;;;;0.50;0.50;;;;;;;11.97;100.00;95872.84;5024332;28;20104;-64
2023/04/26 02:24:31;;;;;;;0.50;0.50;;;;;;;12.08;100.00;95878.28;5024152;28;20460;-64
2023/04/26 02:27:02;;;;;;;0.50;0.50;;;;;;;12.20;100.00;95883.38;5022744;28;20068;-66
2023/04/26 02:29:29;;;;;;;0.60;0.60;;;;;;;12.16;100.00;95872.28;5023828;28;20068;-66
2023/04/26 02:32:10;;;;;;;0.50;0.50;;;;;;;12.07;100.00;95879.50;5026067;28;20073;-63
2023/04/26 02:34:36;;;;;;;0.50;0.50;;;;;;;11.64;100.00;95844.91;5023302;28;20085;-65
2023/04/26 02:37:03;;;;;;;0.50;0.50;;;;;;;12.03;100.00;95889.81;5022572;28;20417;-65
2023/04/26 02:39:30;;;;;;;0.60;0.60;;;;;;;12.03;100.00;95887.06;5022535;28;20045;-65
2023/04/26 02:41:57;;;;;;;0.50;0.50;;;;;;;11.80;100.00;95850.75;5022490;28;20480;-64
2023/04/26 02:44:23;;;;;;;0.52;0.52;;;;;;;11.55;100.00;95830.69;5020512;28;20557;-64
2023/04/26 02:46:50;;;;;;;0.50;0.50;;;;;;;11.89;100.00;95903.81;5021469;28;20077;-65
2023/04/26 02:49:17;;;;;;;0.50;0.50;;;;;;;11.82;100.00;95901.09;5022025;28;20061;-65
2023/04/26 02:51:43;;;;;;;0.50;0.50;;;;;;;11.80;100.00;95909.03;5024183;28;20057;-65
2023/04/26 02:54:10;;;;;;;0.50;0.50;;;;;;;11.43;100.00;95865.22;5023747;28;20854;-64
2023/04/26 02:56:36;;;;;;;0.50;0.50;;;;;;;11.41;100.00;95861.28;5023747;28;20069;-65
2023/04/26 02:59:03;;;;;;;0.50;0.50;;;;;;;11.67;100.00;95922.56;5021998;28;20119;-64
2023/04/26 03:01:30;;;;;;;0.50;0.50;;;;;;;11.57;100.00;95912.28;5024084;28;20129;-66
2023/04/26 03:03:56;;;;;;;0.50;0.50;;;;;;;11.62;100.00;95902.75;5022014;28;20132;-65
2023/04/26 03:06:23;;;;;;;0.50;0.50;;;;;;;11.63;100.00;95910.69;5023964;28;20428;-65
2023/04/26 03:08:50;;;;;;;0.50;0.50;;;;;;;11.11;100.00;95831.31;5023641;28;20132;-64
2023/04/26 03:11:16;;;;;;;0.50;0.50;;;;;;;11.58;100.00;95924.16;5023479;28;20142;-64
2023/04/26 03:13:43;;;;;;;0.40;0.40;;;;;;;11.27;100.00;95931.44;5023332;28;20057;-64
2023/04/26 03:16:10;;;;;;;0.50;0.50;;;;;;;11.39;100.00;95932.97;5022240;28;20122;-65
2023/04/26 03:18:37;;;;;;;0.50;0.50;;;;;;;11.15;100.00;95889.50;5018319;28;20504;-65
2023/04/26 03:21:03;;;;;;;0.50;0.50;;;;;;;11.19;100.00;95884.75;5004098;28;20100;-65
2023/04/26 03:23:30;;;;;;;0.50;0.50;;;;;;;11.52;100.00;95945.97;5003569;28;20145;-65
2023/04/26 03:25:57;;;;;;;0.50;0.50;;;;;;;11.30;100.00;95897.34;5004134;28;20544;-65
2023/04/26 03:28:24;;;;;;;0.50;0.50;;;;;;;11.54;100.00;95934.50;5002200;28;20536;-67
2023/04/26 03:30:50;;;;;;;0.50;0.50;;;;;;;11.53;100.00;95928.16;5004000;28;20089;-65
2023/04/26 03:33:17;;;;;;;0.50;0.50;;;;;;;11.42;100.00;95904.44;5003395;28;20057;-66
2023/04/26 03:35:44;;;;;;;0.50;0.50;;;;;;;11.63;100.00;95943.19;5002281;28;20461;-65
2023/04/26 03:38:10;;;;;;;0.47;0.47;;;;;;;11.59;100.00;95936.84;5003892;28;20124;-66
2023/04/26 03:40:37;;;;;;;0.50;0.50;;;;;;;11.17;100.00;95879.63;5003523;28;20050;-65
2023/04/26 03:43:04;;;;;;;0.50;0.50;;;;;;;11.54;100.00;95937.28;5003433;28;20120;-65
2023/04/26 03:45:30;;;;;;;0.50;0.50;;;;;;;11.65;100.00;95930.50;5001955;28;20100;-64
2023/04/26 03:47:57;;;;;;;0.50;0.50;;;;;;;11.61;100.00;95928.91;5018685;28;20104;-65
2023/04/26 03:50:23;;;;;;;0.50;0.50;;;;;;;11.72;100.00;95935.22;5003079;28;20050;-65
2023/04/26 03:52:50;;;;;;;0.50;0.50;;;;;;;11.72;100.00;95940.78;5018479;28;20054;-65
2023/04/26 03:55:17;;;;;;;0.55;0.55;;;;;;;11.73;100.00;95958.97;5003110;28;20050;-64
2023/04/26 03:57:43;;;;;;;0.60;0.60;;;;;;;11.60;100.00;95921.78;5003549;28;20513;-65
2023/04/26 04:00:12;;;;;;;0.50;0.50;;;;;;;11.89;100.00;95962.06;5004422;28;20620;-64
2023/04/26 04:02:40;;;;;;;0.60;0.60;;;;;;;11.95;100.00;95961.25;5021934;28;20555;-65
2023/04/26 04:05:08;;;;;;;0.50;0.50;;;;;;;11.33;100.00;95862.50;5022886;28;20646;-65
2023/04/26 04:07:35;;;;;;;0.50;0.50;;;;;;;11.96;100.00;95956.50;5023392;28;20057;-65
2023/04/26 04:10:01;;;;;;;0.50;0.50;;;;;;;11.89;100.00;95959.28;5025291;28;20057;-65
2023/04/26 04:12:28;;;;;;;0.50;0.50;;;;;;;12.09;100.00;95965.94;5026208;28;20457;-66
2023/04/26 04:14:55;;;;;;;0.50;0.50;;;;;;;12.14;100.00;95957.16;5026934;28;20151;-65
2023/04/26 04:17:21;;;;;;;0.50;0.50;;;;;;;12.17;100.00;95950.81;5026811;28;20417;-65
2023/04/26 04:19:48;;;;;;;0.50;0.50;;;;;;;11.83;100.00;95888.78;5025229;28;20041;-65
2023/04/26 04:22:15;;;;;;;0.50;0.50;;;;;;;12.33;100.00;95951.06;5026343;28;20049;-66
2023/04/26 04:24:43;;;;;;;0.50;0.50;;;;;;;12.48;100.00;95972.00;5025985;28;20053;-64
2023/04/26 04:27:10;;;;;;;0.50;0.50;;;;;;;12.71;100.00;95946.41;5025135;28;20049;-63
2023/04/26 04:29:37;;;;;;;0.50;0.50;;;;;;;12.86;100.00;95954.22;5026013;28;20595;-64
2023/04/26 04:32:04;;;;;;;0.50;0.50;;;;;;;12.98;100.00;95955.66;5026349;28;20049;-64
2023/04/26 04:34:34;;;;;;;0.60;0.60;;;;;;;11.92;100.00;95800.31;5025927;28;20053;-65
2023/04/26 04:37:03;;;;;;;0.60;0.60;;;;;;;13.28;100.00;95970.47;5026321;28;20049;-64
2023/04/26 04:39:29;;;;;;;0.60;0.60;;;;;;;13.29;97.72;95958.16;5026005;28;20049;-65
2023/04/26 04:41:57;;;;;;;0.52;0.52;;;;;;;13.45;96.99;95954.81;5025961;28;20053;-64
2023/04/26 04:44:25;;;;;;;0.60;0.60;;;;;;;13.51;96.18;95953.91;5024050;28;20496;-65
2023/04/26 04:46:52;;;;;;;0.60;0.60;;;;;;;13.66;96.01;95951.75;5026047;28;20137;-62
2023/04/26 04:49:19;;;;;;;0.50;0.50;;;;;;;13.31;94.64;95905.69;5026216;28;20050;-63
2023/04/26 04:51:46;;;;;;;0.60;0.60;;;;;;;13.04;94.28;95851.97;5025840;28;20081;-64
2023/04/26 04:54:15;;;;;;;0.60;0.60;;;;;;;13.83;94.90;95947.19;5025830;28;20083;-64
2023/04/26 04:56:42;;;;;;;0.60;0.60;;;;;;;13.89;93.69;95960.22;5025835;28;20046;-64
2023/04/26 04:59:10;;;;;;;0.60;0.60;;;;;;;13.82;92.53;95959.50;5026017;28;20080;-64
2023/04/26 05:01:37;;;;;;;0.50;0.50;;;;;;;13.11;93.09;95838.00;5025392;28;20065;-64
2023/04/26 05:04:05;;;;;;;0.60;0.60;;;;;;;13.06;95.52;95885.72;5024177;28;20069;-64
2023/04/26 05:06:32;;;;;;;0.60;0.60;;;;;;;13.60;94.56;95945.88;5024074;28;20595;-64
2023/04/26 05:09:00;;;;;;;0.60;0.60;;;;;;;13.93;94.88;95955.38;5025560;28;20144;-66
2023/04/26 05:11:27;;;;;;;0.60;0.60;;;;;;;14.01;92.79;95944.91;5025338;28;20698;-64
2023/04/26 05:13:53;;;;;;;0.60;0.60;;;;;;;13.91;93.43;95918.03;5024024;28;20084;-65
2023/04/26 05:16:20;;;;;;;0.63;0.63;;;;;;;14.33;91.52;95936.94;5025567;28;20053;-66
2023/04/26 05:18:47;;;;;;;0.60;0.60;;;;;;;14.39;90.13;95938.03;5037862;28;20056;-64
2023/04/26 05:21:13;;;;;;;0.60;0.60;;;;;;;14.22;87.99;95923.16;5024690;28;20508;-66
2023/04/26 05:23:40;;;;;;;0.60;0.60;;;;;;;14.37;88.54;95934.88;5025630;28;20144;-64
2023/04/26 05:26:13;;;;;;;0.70;0.70;;;;;;;14.37;88.79;95930.09;5025198;28;20115;-65
2023/04/26 05:28:40;;;;;;;0.60;0.60;;;;;;;14.29;88.43;95888.84;5024120;28;20505;-66
2023/04/26 05:31:10;;;;;;;0.60;0.60;;;;;;;14.72;86.18;95928.72;5023710;28;20581;-65
2023/04/26 05:33:37;;;;;;;0.60;0.60;;;;;;;14.91;86.23;95955.88;5023238;28;20057;-66
2023/04/26 05:36:04;;;;;;;0.60;0.60;;;;;;;15.03;84.64;95938.53;5023217;28;20069;-65
2023/04/26 05:38:31;;;;;;;0.60;0.60;;;;;;;15.04;83.21;95945.69;5024500;28;20062;-65
2023/04/26 05:40:57;;;;;;;0.60;0.60;;;;;;;14.51;81.71;95945.81;5021482;28;20056;-64
2023/04/26 05:43:24;;;;;;;0.68;0.68;;;;;;;13.94;82.90;95878.22;5020943;28;20138;-64
2023/04/26 05:45:55;;;;;;;0.63;0.63;;;;;;;14.31;82.06;95892.78;5024106;28;20425;-64
2023/04/26 05:48:23;;;;;;;0.60;0.60;;;;;;;14.07;82.93;95848.59;5023795;28;20072;-62
2023/04/26 05:50:51;;;;;;;0.60;0.60;;;;;;;14.64;82.00;95944.78;5021682;28;20089;-64
2023/04/26 05:53:18;;;;;;;0.70;0.70;;;;;;;14.75;82.38;95950.16;5022939;28;20049;-70
2023/04/26 05:55:45;;;;;;;0.60;0.60;;;;;;;13.86;79.26;95798.81;5021620;28;20057;-73
2023/04/26 05:58:12;;;;;;;0.65;0.65;;;;;;;14.83;78.33;95958.00;5018318;28;20582;-69
2023/04/26 06:00:39;;;;;;;0.68;0.68;;;;;;;14.69;79.96;95952.66;5021020;28;20057;-69
2023/04/26 06:03:06;;;;;;;0.70;0.70;;;;;;;13.94;80.80;95878.22;5017235;28;20476;-62
2023/04/26 06:05:36;;;;;;;0.70;0.70;;;;;;;14.36;81.24;95955.59;5020922;28;20088;-67
2023/04/26 06:08:04;;;;;;;0.60;0.60;;;;;;;13.85;82.59;95886.31;5019718;28;20057;-62
2023/04/26 06:10:30;;;;;;;0.68;0.68;;;;;;;13.14;81.92;95714.84;5022805;28;20057;-67
2023/04/26 06:12:57;;;;;;;0.60;0.60;;;;;;;14.86;82.54;95948.78;5024583;28;20089;-61
2023/04/26 06:15:24;;;;;;;0.60;0.60;;;;;;;14.99;79.20;95944.19;5022945;28;20049;-61
2023/04/26 06:17:50;;;;;;;0.70;0.70;;;;;;;15.10;77.74;95924.44;5015931;28;20050;-71
2023/04/26 06:20:17;;;;;;;0.70;0.70;;;;;;;15.31;77.80;95937.22;5010855;28;20057;-61
2023/04/26 06:22:44;;;;;;;0.60;0.60;;;;;;;15.21;77.02;95916.66;5022747;28;20057;-67
2023/04/26 06:25:10;;;;;;;0.60;0.60;;;;;;;15.24;77.57;95960.44;5016336;28;20530;-68
2023/04/26 06:27:38;;;;;;;0.60;0.60;;;;;;;14.56;77.06;95792.03;5015606;28;20250;-68
2023/04/26 06:30:06;;;;;;;0.70;0.70;;;;;;;14.72;76.47;95761.47;5022656;28;20052;-68
2023/04/26 06:32:33;;;;;;;0.70;0.70;;;;;;;15.76;77.09;95877.69;5010376;28;20054;-67
2023/04/26 06:35:00;;;;;;;0.70;0.70;;;;;;;15.86;75.01;95885.03;5014478;28;20085;-71
2023/04/26 06:37:27;;;;;;;0.70;0.70;;;;;;;14.10;74.21;95602.72;5020607;28;20138;-65
2023/04/26 06:39:53;;;;;;;0.70;0.70;;;;;;;14.50;73.74;95637.72;5024003;28;20483;-62
2023/04/26 06:42:21;;;;;;;0.70;0.70;;;;;;;16.15;72.98;95796.59;5023760;28;20084;-68
2023/04/26 06:44:48;;;;;;;0.70;0.70;;;;;;;17.03;71.03;95933.34;5038142;28;20061;-62
2023/04/26 06:47:14;;;;;;;0.73;0.73;;;;;;;16.41;67.88;95848.63;5023450;28;20053;-69
2023/04/26 06:49:41;;;;;;;0.70;0.70;;;;;;;17.00;65.59;95934.25;5023714;28;20049;-61
2023/04/26 06:52:08;;;;;;;0.73;0.73;;;;;;;17.14;66.15;95920.66;5022391;28;20053;-62
2023/04/26 06:54:35;;;;;;;0.70;0.70;;;;;;;16.95;68.27;95904.00;5024042;28;20528;-63
2023/04/26 06:57:15;;;;;;;0.80;0.80;;;;;;;16.88;62.22;95865.03;5022461;28;20049;-71
2023/04/26 06:59:42;;;;;;;0.80;0.80;;;;;;;17.16;63.14;95920.22;5023731;28;20594;-67
2023/04/26 07:02:08;;;;;;;0.70;0.70;;;;;;;16.00;61.56;95915.44;5023459;28;20155;-60
2023/04/26 07:04:35;;;;;;;0.77;0.77;;;;;;;16.38;65.47;95910.97;5023112;28;20148;-70
2023/04/26 07:07:02;;;;;;;0.70;0.70;;;;;;;16.43;65.32;95888.09;5023682;28;20049;-62
2023/04/26 07:09:29;;;;;;;0.70;0.70;;;;;;;16.98;63.35;95926.28;5023250;28;20136;-62
2023/04/26 07:11:56;;;;;;;0.70;0.70;;;;;;;14.99;65.91;95859.72;5021023;28;20973;-64
2023/04/26 07:14:23;;;;;;;0.70;0.70;;;;;;;14.92;66.67;95887.75;5022485;28;20077;-68
2023/04/26 07:16:50;;;;;;;0.70;0.70;;;;;;;15.71;64.00;95931.22;5023689;28;20088;-66
2023/04/26 07:19:17;;;;;;;0.70;0.70;;;;;;;15.37;63.43;95844.22;5014673;28;20060;-63
2023/04/26 07:21:43;;;;;;;0.70;0.70;;;;;;;15.93;68.93;95923.97;5016674;28;20554;-69
2023/04/26 07:24:12;;;;;;;0.70;0.70;;;;;;;15.70;59.33;95804.03;5018059;28;20132;-71
2023/04/26 07:26:40;;;;;;;0.70;0.70;;;;;;;16.95;61.97;95934.75;5009995;28;20449;-67
2023/04/26 07:29:07;;;;;;;0.80;0.80;;;;;;;17.32;58.83;95912.59;5021208;28;20085;-62
2023/04/26 07:31:34;;;;;;;0.80;0.80;;;;;;;17.06;60.63;95910.09;5031141;28;20132;-67
2023/04/26 07:34:01;;;;;;;0.80;0.80;;;;;;;16.70;61.55;95764.03;5005508;28;20512;-61
2023/04/26 07:36:27;;;;;;;0.80;0.80;;;;;;;17.53;61.29;95920.41;5009370;28;20080;-63
2023/04/26 07:38:54;;;;;;;0.70;0.70;;;;;;;15.89;64.85;95902.94;5020365;28;20046;-65
2023/04/26 07:41:21;;;;;;;0.80;0.80;;;;;;;15.78;66.44;95928.31;5020783;28;20049;-62
2023/04/26 07:43:47;;;;;;;0.70;0.70;;;;;;;16.64;67.82;95928.75;5019817;28;20061;-66
2023/04/26 07:46:14;;;;;;;0.70;0.70;;;;;;;17.55;65.08;95919.97;5015560;28;20049;-61
2023/04/26 07:48:41;;;;;;;0.80;0.80;;;;;;;17.42;63.06;95818.34;5006803;28;20132;-60
2023/04/26 07:51:09;;;;;;;0.80;0.80;;;;;;;16.37;64.13;95859.09;5006860;28;20062;-62
2023/04/26 07:53:37;;;;;;;0.70;0.70;;;;;;;17.60;63.91;95930.63;4998384;28;20058;-71
2023/04/26 07:56:06;;;;;;;0.70;0.70;;;;;;;18.35;60.15;95899.97;5031334;28;20549;-66
2023/04/26 07:58:38;;;;;;;0.80;0.80;;;;;;;19.29;58.20;95926.91;5005153;28;20405;-63
2023/04/26 08:01:05;;;;;;;0.80;0.80;;;;;;;19.26;55.87;95891.28;5022747;28;20049;-60
2023/04/26 08:03:32;;;;;;;0.73;0.73;;;;;;;19.32;57.91;95920.38;5016658;28;20053;-63
2023/04/26 08:05:59;;;;;;;0.80;0.80;;;;;;;18.76;55.66;95908.22;5010081;28;20085;-59
2023/04/26 08:08:27;;;;;;;0.70;0.70;;;;;;;17.23;57.31;95897.66;5011819;28;20060;-63
2023/04/26 08:10:54;;;;;;;0.90;0.90;;;;;;;17.45;58.65;95899.44;5016920;28;20540;-61
2023/04/26 08:13:21;;;;;;;0.77;0.77;;;;;;;18.36;58.20;95912.72;5006608;28;20053;-60
2023/04/26 08:15:48;;;;;;;0.77;0.77;;;;;;;18.47;55.23;95868.34;5021485;28;20397;-62
2023/04/26 08:18:14;;;;;;;0.70;0.70;;;;;;;18.56;56.09;95896.47;5026112;28;20053;-68
2023/04/26 08:20:41;;;;;;;0.73;0.73;;;;;;;19.30;53.03;95917.25;5026668;28;20119;-62
2023/04/26 08:23:08;;;;;;;0.90;0.90;;;;;;;19.65;53.46;95917.22;5025983;28;20076;-71
2023/04/26 08:25:35;;;;;;;0.90;0.90;;;;;;;19.63;53.32;95889.59;5026001;28;20049;-70
2023/04/26 08:28:02;;;;;;;0.80;0.80;;;;;;;19.95;51.27;95866.66;5026164;28;20096;-71
2023/04/26 08:30:28;;;;;;;0.90;0.90;;;;;;;20.40;52.37;95905.53;5025866;28;20057;-62
2023/04/26 08:32:55;;;;;;;0.90;0.90;;;;;;;19.58;50.42;95744.09;5024784;28;20057;-70
2023/04/26 08:35:22;;;;;;;0.90;0.90;;;;;;;20.29;50.99;95879.84;5025635;28;20495;-63
2023/04/26 08:37:49;;;;;;;0.80;0.80;;;;;;;20.47;50.94;95927.75;5021912;28;22090;-60
2023/04/26 08:40:22;;;;;;;0.80;0.80;;;;;;;20.25;51.05;95891.22;5021535;28;20049;-63
2023/04/26 08:42:49;;;;;;;;;;;;;;;19.94;52.90;95931.78;5023367;28;20209;-61
2023/04/26 08:45:15;;;;;;;0.80;0.80;;;;;;;19.38;54.73;95943.03;5018656;28;19968;-60
2023/04/26 08:47:45;;;;;;;0.80;0.80;;;;;;;17.93;56.29;95834.00;5033640;28;20050;-71
2023/04/26 08:50:14;;;;;;;0.70;0.70;;;;;;;18.27;58.80;95942.66;5016429;28;20101;-62
2023/04/26 08:52:42;;;;;;;0.80;0.80;;;;;;;17.99;60.55;95933.09;5016073;28;20061;-64
2023/04/26 08:55:09;;;;;;;0.80;0.80;;;;;;;17.95;61.81;95898.78;5016620;28;20144;-65
2023/04/26 08:57:36;;;;;;;0.70;0.70;;;;;;;18.33;61.40;95896.81;5024424;28;20049;-65
2023/04/26 09:00:05;;;;;;;0.77;0.77;;;;;;;17.60;60.29;95833.41;5023693;28;20150;-61
2023/04/26 09:02:33;;;;;;;0.77;0.77;;;;;;;18.22;60.71;95921.59;5012008;28;20146;-64
2023/04/26 09:05:00;;;;;;;0.70;0.70;;;;;;;18.11;58.89;95923.94;5014472;28;20057;-66
2023/04/26 09:07:31;;;;;;;0.70;0.70;;;;;;;17.80;62.42;95925.66;5012787;28;20135;-60
2023/04/26 09:09:59;;;;;;;0.70;0.70;;;;;;;18.14;62.52;95883.78;5016834;28;20057;-63
2023/04/26 09:12:26;;;;;;;0.70;0.70;;;;;;;18.55;61.74;95920.16;5024940;28;20123;-63
2023/04/26 09:14:53;;;;;;;0.70;0.70;;;;;;;17.93;60.47;95784.38;5023889;28;20152;-63
2023/04/26 09:17:31;;;;;;;0.70;0.70;;;;;;;18.59;60.99;95922.88;5014981;28;20513;-60
2023/04/26 09:19:59;;;;;;;0.70;0.70;;;;;;;18.73;61.08;95931.59;5020832;28;20194;-60
2023/04/26 09:22:33;;;;;;;0.80;0.80;;;;;;;18.97;59.92;95923.56;5022240;28;20135;-61
2023/04/26 09:25:04;;;;;;;0.70;0.70;;;;;;;18.34;58.39;95853.50;5022798;28;20107;-63
2023/04/26 09:27:36;;;;;;;0.70;0.70;;;;;;;19.02;58.50;95920.19;5019369;28;20049;-60
2023/04/26 09:30:08;;;;;;;0.80;0.80;;;;;;;19.31;55.58;95921.63;5005403;28;20073;-63
2023/04/26 09:32:56;;;;;;;0.80;0.80;;;;;;;19.15;56.12;95924.56;5033668;28;20155;-59
2023/04/26 09:35:33;;;;;;;0.75;0.75;;;;;;;18.72;58.69;95924.41;5020181;28;20775;-62
2023/04/26 09:38:00;;;;;;;0.70;0.70;;;;;;;16.99;61.12;95803.97;5005512;28;20054;-62
2023/04/26 09:40:39;;;;;;;0.75;0.75;;;;;;;17.95;63.08;95904.41;5005444;28;20061;-59
2023/04/26 09:43:07;;;;;;;0.70;0.70;;;;;;;18.64;59.01;95925.88;5008045;28;20700;-63
2023/04/26 09:46:00;;;;;;;0.70;0.70;;;;;;;16.82;61.44;95869.59;5021897;28;20049;-64
2023/04/26 09:48:33;;;;;;;0.70;0.70;;;;;;;16.58;63.46;95925.69;5019138;28;20120;-62
2023/04/26 09:51:02;;;;;;;0.73;0.73;;;;;;;17.13;63.24;95921.09;5006310;28;20058;-68
2023/04/26 09:53:35;;;;;;;0.70;0.70;;;;;;;16.43;62.87;95885.31;5024803;28;20104;-66
2023/04/26 09:56:06;;;;;;;0.70;0.70;;;;;;;16.63;62.55;95922.38;5024925;28;20073;-64
2023/04/26 09:58:33;;;;;;;0.80;0.80;;;;;;;17.19;59.90;95936.13;5022856;28;20298;-62
2023/04/26 10:01:01;;;;;;;0.70;0.70;;;;;;;16.83;60.21;95901.91;5009761;28;20049;-65
2023/04/26 10:03:31;;;;;;;0.70;0.70;;;;;;;16.61;60.80;95829.75;5021178;28;20084;-63
2023/04/26 10:05:58;;;;;;;0.70;0.70;;;;;;;17.04;60.34;95835.00;5023409;28;20092;-64
2023/04/26 10:08:25;;;;;;;0.70;0.70;;;;;;;18.43;58.07;95940.56;5024418;28;20107;-63
2023/04/26 10:10:53;;;;;;;0.80;0.80;;;;;;;18.51;55.73;95935.53;5024401;28;20049;-64
2023/04/26 10:13:20;;;;;;;0.70;0.70;;;;;;;18.66;55.08;95926.22;5023203;28;20081;-64
2023/04/26 10:15:47;;;;;;;0.73;0.73;;;;;;;17.99;55.88;95921.88;5024286;28;20107;-63
2023/04/26 10:18:14;;;;;;;0.70;0.70;;;;;;;16.10;57.90;95752.41;5024081;28;20078;-63
2023/04/26 10:20:45;;;;;;;0.70;0.70;;;;;;;17.90;57.27;95930.97;5023878;28;20057;-68
2023/04/26 10:23:19;;;;;;;0.70;0.70;;;;;;;18.35;56.23;95921.59;5024591;28;20060;-63
2023/04/26 10:25:47;;;;;;;0.70;0.70;;;;;;;17.43;54.82;95856.31;5022388;28;20064;-63
2023/04/26 10:28:14;;;;;;;0.80;0.80;;;;;;;17.25;55.56;95878.38;5023598;28;20098;-67
2023/04/26 10:30:58;;;;;;;0.80;0.80;;;;;;;17.68;56.57;95909.59;5023801;28;20061;-62
2023/04/26 10:33:26;;;;;;;0.80;0.80;;;;;;;16.90;58.02;95852.16;5024186;28;20054;-66
2023/04/26 10:36:06;;;;;;;0.70;0.70;;;;;;;17.20;57.91;95923.72;5021576;28;20511;-64
2023/04/26 10:38:36;;;;;;;0.80;0.80;;;;;;;16.63;57.31;95793.75;5022505;28;20061;-63
2023/04/26 10:41:28;;;;;;;0.77;0.77;;;;;;;17.81;56.08;95911.19;5022919;28;20542;-63
2023/04/26 10:43:54;;;;;;;0.80;0.80;;;;;;;18.06;54.98;95904.88;5021066;28;20084;-63
2023/04/26 10:46:38;;;;;;;0.70;0.70;;;;;;;18.44;53.33;95919.72;5012911;28;20064;-62
2023/04/26 10:49:15;;;;;;;;;;;;;;;17.74;54.66;95916.22;5019307;28;20057;-59
2023/04/26 10:52:11;;;;;;;0.80;0.80;;;;;;;17.99;54.80;95899.47;5003503;28;19968;-58
2023/04/26 10:54:58;;;;;;;0.80;0.80;;;;;;;18.24;54.81;95891.06;5005280;28;20837;-62
2023/04/26 10:57:46;;;;;;;0.80;0.80;;;;;;;18.77;53.11;95898.59;5002784;28;20060;-64
2023/04/26 11:00:24;;;;;;;0.82;0.82;;;;;;;19.42;51.86;95905.19;5002828;28;20107;-63
2023/04/26 11:02:56;;;;;;;0.80;0.80;;;;;;;19.13;50.82;95915.81;5002675;28;20050;-64
2023/04/26 11:05:54;;;;;;;0.70;0.70;;;;;;;18.82;52.85;95912.06;5002579;28;20136;-64
2023/04/26 11:08:30;;;;;;;0.70;0.70;;;;;;;19.24;52.38;95907.00;5003885;28;20050;-63
2023/04/26 11:11:03;;;;;;;0.82;0.82;;;;;;;19.10;51.82;95905.47;5003530;28;20050;-64
2023/04/26 11:13:40;;;;;;;0.70;0.70;;;;;;;18.68;53.14;95884.47;5004194;28;20073;-67
2023/04/26 11:16:17;;;;;;;0.80;0.80;;;;;;;18.85;50.69;95905.56;5002659;28;20073;-66
2023/04/26 11:18:45;;;;;;;0.80;0.80;;;;;;;18.37;49.72;95908.69;5022944;28;20057;-64
2023/04/26 11:21:16;;;;;;;0.90;0.90;;;;;;;18.17;51.22;95885.69;5007341;28;20571;-64
2023/04/26 11:23:52;;;;;;;0.80;0.80;;;;;;;17.48;51.47;95903.38;5007805;28;20062;-65
2023/04/26 11:26:19;;;;;;;0.70;0.70;;;;;;;17.40;53.22;95901.97;5005666;28;20050;-64
2023/04/26 11:28:48;;;;;;;0.65;0.65;;;;;;;17.00;54.35;95897.88;5003611;28;20314;-66
2023/04/26 11:31:17;;;;;;;0.70;0.70;;;;;;;17.55;53.48;95895.56;4987741;28;20050;-66
2023/04/26 11:33:44;;;;;;;0.70;0.70;;;;;;;17.91;53.85;95896.09;4988036;28;20054;-65
2023/04/26 11:36:13;;;;;;;0.80;0.80;;;;;;;17.90;54.13;95891.72;4991366;28;20045;-62
2023/04/26 11:38:40;;;;;;;0.90;0.90;;;;;;;15.85;52.68;95564.34;5005856;28;20042;-61